• Join FlightAware (Why Join?)
  • Login
  • US Flag 
Gobble Gobble! 
07:19AM EST


 

Airport Tracker/Info


-or-


 

Live Flight TrackerFlight Track Log ✈ ASH3767 ✈ 22-Aug-2013 ✈ KORD - KATL

Flight Track Log - Related Links

Times and Time Zones

All times are in EDT time to prevent confusion due to time zone crossing. See the ASH3767 flight status page for this flight to view local times or setup timezone preferences in your user account.

Time Position Orientation Groundspeed Altitude Reporting Facility
EDT Latitude Longitude Course Direction KTS MPH feet Rate Location/Type
09:55AM 41.9333 -87.9000 154° Southeast 171 197 2,000  Level Chicago TRACON
09:56AM 41.8833 -87.8667 154° Southeast 229 264 4,400 2,280 Climbing Chicago TRACON
09:57AM 41.8111 -87.8364 163° South 260 299 6,900 2,460 Climbing Chicago Center
09:58AM 41.7325 -87.8450 185° South 282 325 9,200 2,280 Climbing Chicago Center
09:59AM 41.6483 -87.8533 184° South 299 344 11,700 2,280 Climbing Chicago Center
10:00AM 41.5600 -87.8622 184° South 316 364 14,000 1,860 Climbing Chicago Center
10:01AM 41.4647 -87.8725 185° South 336 387 15,600 1,500 Climbing Chicago Center
10:02AM 41.3606 -87.8817 184° South 366 421 17,100 1,200 Climbing Chicago Center
10:03AM 41.2564 -87.8917 184° South 371 427 18,200 1,200 Climbing Chicago Center
10:04AM 41.1258 -87.8886 179° South 390 449 19,600 1,140 Climbing Chicago Center
10:05AM 41.0150 -87.8864 179° South 397 457 20,600 1,080 Climbing Chicago Center
10:06AM 40.9036 -87.8814 178° South 401 461 21,900 1,200 Climbing Chicago Center
10:07AM 40.7881 -87.8772 178° South 413 475 23,100 1,080 Climbing Chicago Center
10:08AM 40.6681 -87.8750 179° South 427 491 24,200 1,320 Climbing Chicago Center
10:09AM 40.5467 -87.8694 178° South 438 504 25,900 1,440 Climbing Chicago Center
10:10AM 40.3994 -87.8667 179° South 442 509 27,200 1,080 Climbing Chicago Center
10:11AM 40.2747 -87.8619 178° South 450 518 28,200 960 Climbing Chicago Center
10:12AM 40.1503 -87.8567 178° South 465 535 29,300 960 Climbing Chicago Center
10:13AM 40.0458 -87.8533 179° South 462 532 30,000 360 Climbing Indianapolis Center
10:14AM 39.9128 -87.8467 178° South 473 544 30,000 300 Level Indianapolis Center
10:15AM 39.7461 -87.8403 178° South 496 571 30,700 960 Climbing Indianapolis Center
10:16AM 39.6122 -87.8342 178° South 490 564 32,000 1,080 Climbing Indianapolis Center
10:17AM 39.4794 -87.8283 178° South 481 554 33,000 480 Climbing Indianapolis Center
10:18AM 39.3281 -87.8208 178° South 490 564 33,000  Level Indianapolis Center
10:19AM 39.1881 -87.8161 179° South 500 575 33,000  Level Indianapolis Center
10:20AM 39.0497 -87.8106 178° South 497 572 33,000  Level Indianapolis Center
10:21AM 38.9131 -87.8047 178° South 493 567 33,000  Level Indianapolis Center
10:22AM 38.7769 -87.7992 178° South 491 565 33,000  Level Indianapolis Center
10:23AM 38.6153 -87.7911 178° South 486 559 33,000  Level Indianapolis Center
10:25AM 38.4786 -87.7853 178° South 491 565 33,000  Level Indianapolis Center
10:26AM 38.3414 -87.7800 178° South 494 568 33,000  Level Indianapolis Center
10:27AM 38.2042 -87.7739 178° South 495 570 33,000  Level Indianapolis Center
10:28AM 38.0686 -87.7544 174° South 496 571 33,000  Level Indianapolis Center
10:29AM 37.9453 -87.6883 157° South 486 559 33,000  Level Indianapolis Center
10:30AM 37.7981 -87.6050 156° South 483 556 33,000  Level Indianapolis Center
10:31AM 37.6781 -87.5367 156° South 483 556 33,000  Level Indianapolis Center
10:32AM 37.5542 -87.4678 156° South 482 555 33,000  Level Indianapolis Center
10:33AM 37.4300 -87.4003 157° South 481 554 33,000  Level Indianapolis Center
10:34AM 37.3058 -87.3306 156° South 485 558 33,000  Level Indianapolis Center
10:35AM 37.1619 -87.2506 156° South 482 555 33,000  Level Indianapolis Center
10:36AM 37.0814 -87.2028 155° Southeast 484 557 33,000  Level Memphis Center
10:37AM 36.9736 -87.1422 156° South 484 557 33,000  Level Memphis Center
10:38AM 36.8508 -87.0772 157° South 484 557 33,000  Level Memphis Center
10:39AM 36.7283 -87.0097 156° South 484 557 33,000  Level Memphis Center
10:40AM 36.6078 -86.9422 156° South 484 557 33,000  Level Memphis Center
10:41AM 36.4892 -86.8750 156° South 484 557 33,000  Level Memphis Center
10:42AM 36.3619 -86.8083 157° South 489 563 33,000  Level Memphis Center
10:43AM 36.2222 -86.7294 156° South 497 572 33,000  Level Memphis Center
10:44AM 36.1056 -86.6603 154° Southeast 485 558 33,000  Level Memphis Center
10:45AM 36.0094 -86.5825 147° Southeast 480 552 33,000  Level Memphis Center
10:47AM 35.7731 -86.3908 147° Southeast 488 562 33,000  Level Atlanta Center
10:48AM 35.6600 -86.3033 148° Southeast 482 555 33,000  Level Atlanta Center
10:49AM 35.5406 -86.2056 146° Southeast 476 548 33,000  Level Atlanta Center
10:50AM 35.4317 -86.1161 146° Southeast 476 548 33,000  Level Atlanta Center
10:51AM 35.3183 -86.0292 148° Southeast 482 555 33,000  Level Atlanta Center
10:52AM 35.2069 -85.9428 148° Southeast 476 548 33,000 -660 Level Atlanta Center
10:53AM 35.1122 -85.8644 146° Southeast 471 542 31,700 -1,740 Descending Atlanta Center
10:54AM 35.0050 -85.7783 147° Southeast 471 542 29,600 -2,100 Descending Atlanta Center
10:55AM 34.8956 -85.6925 147° Southeast 471 542 27,500 -2,100 Descending Atlanta Center
10:56AM 34.7881 -85.6094 148° Southeast 471 542 25,400 -2,100 Descending Atlanta Center
10:57AM 34.6847 -85.5267 147° Southeast 459 528 23,300 -2,100 Descending Atlanta Center
10:58AM 34.5833 -85.4517 149° Southeast 446 513 21,200 -2,100 Descending Atlanta Center
10:59AM 34.4861 -85.3744 147° Southeast 434 499 19,100 -2,040 Descending Atlanta Center
11:00AM 34.3911 -85.3000 147° Southeast 420 483 17,200 -1,800 Descending Atlanta Center
11:01AM 34.3019 -85.2308 147° Southeast 403 464 15,600 -1,560 Descending Atlanta Center
11:02AM 34.2108 -85.1617 148° Southeast 397 457 14,100 -840 Descending Atlanta Center
11:03AM 34.1300 -85.0803 140° Southeast 386 444 14,000 -60 Descending Atlanta Center
11:04AM 34.0578 -84.9867 133° Southeast 379 436 14,000  Level Atlanta Center
11:05AM 33.9875 -84.9006 135° Southeast 368 423 14,000 -240 Level Atlanta Center
11:06AM 33.9169 -84.8097 133° Southeast 363 418 13,600 -1,020 Descending Atlanta Center
11:06AM 33.8500 -84.7167 131° Southeast 371 427 12,200 -900 Descending Atlanta TRACON
11:07AM 33.7833 -84.6333 134° Southeast 350 403 12,000 -180 Descending Atlanta TRACON
11:08AM 33.7333 -84.5667 132° Southeast 296 341 11,900 -600 Descending Atlanta TRACON
11:09AM 33.7333 -84.4833 90° East 265 305 10,900 -1,500 Descending Atlanta TRACON
11:10AM 33.7333 -84.4000 90° East 254 292 8,900 -2,160 Descending Atlanta TRACON
11:11AM 33.7333 -84.3167 90° East 238 274 6,800 -2,460 Descending Atlanta TRACON
11:12AM 33.7333 -84.2500 90° East 227 261 4,300 -1,680 Descending Atlanta TRACON
11:13AM 33.6833 -84.2333 164° South 184 212 3,500 -660 Descending Atlanta TRACON
11:14AM 33.6500 -84.2667 220° Southwest 190 219 3,000 -600 Descending Atlanta TRACON
11:15AM 33.6500 -84.3333 270° West 162 186 2,300 -780 Descending Atlanta TRACON
11:16AM 33.6500 -84.3667 270° West 140 161 1,600 -780 Descending Atlanta TRACON
11:18AM 33.6333 -84.4167 North  Level FlightAware Approximate
11:25AM 33.6367 -84.4279 North  Level Estimated
11:26AM 33.6367 -84.4279 North  Level Estimated